createdAt,value
2022-08-17T00:01:37.880Z,14.27
2022-08-17T00:04:19.331Z,16.13
2022-08-17T00:06:49.291Z,15.40
2022-08-17T00:09:18.495Z,15.07
2022-08-17T00:12:03.883Z,12.68
2022-08-17T00:14:35.076Z,12.70
2022-08-17T00:17:03.661Z,12.80
2022-08-17T00:19:32.628Z,15.05
2022-08-17T00:22:34.647Z,12.73
2022-08-17T00:24:50.556Z,14.02
2022-08-17T00:27:18.056Z,14.98
2022-08-17T00:29:45.702Z,13.77
2022-08-17T00:33:13.639Z,14.10
2022-08-17T00:35:00.800Z,11.73
2022-08-17T00:37:29.543Z,12.30
2022-08-17T00:39:56.948Z,13.98
2022-08-17T00:42:28.846Z,15.90
2022-08-17T00:44:58.318Z,13.05
2022-08-17T00:47:25.808Z,13.63
2022-08-17T00:49:53.941Z,14.13
2022-08-17T00:52:22.990Z,14.38
2022-08-17T00:54:55.114Z,15.35
2022-08-17T00:57:24.502Z,12.85
2022-08-17T01:00:02.032Z,14.65
2022-08-17T01:02:34.360Z,13.38
2022-08-17T01:05:09.633Z,13.70
2022-08-17T01:07:37.999Z,15.52
2022-08-17T01:10:58.522Z,15.50
2022-08-17T01:12:58.720Z,13.30
2022-08-17T01:15:26.325Z,14.30
2022-08-17T01:17:53.752Z,13.52
2022-08-17T01:20:21.364Z,16.58
2022-08-17T01:22:50.290Z,15.73
2022-08-17T01:25:18.085Z,18.08
2022-08-17T01:27:45.519Z,13.30
2022-08-17T01:30:58.658Z,12.70
2022-08-17T01:33:01.043Z,15.73
2022-08-17T01:35:28.520Z,14.25
2022-08-17T01:37:57.264Z,13.50
2022-08-17T01:40:27.829Z,15.15
2022-08-17T01:42:57.142Z,14.65
2022-08-17T01:45:26.513Z,13.88
2022-08-17T01:47:54.725Z,13.98
2022-08-17T01:50:24.898Z,16.52
2022-08-17T01:52:54.036Z,13.20
2022-08-17T01:55:27.301Z,13.27
2022-08-17T01:57:55.070Z,12.52
2022-08-17T02:00:22.583Z,15.18
2022-08-17T02:02:50.267Z,13.30
2022-08-17T02:05:18.320Z,12.48
2022-08-17T02:07:59.675Z,12.45
2022-08-17T02:10:34.036Z,14.40
2022-08-17T02:13:02.320Z,12.98
2022-08-17T02:15:29.781Z,16.02
2022-08-17T02:17:57.235Z,12.00
2022-08-17T02:20:41.863Z,14.10
2022-08-17T02:23:10.169Z,18.92
2022-08-17T02:25:39.872Z,14.15
2022-08-17T02:28:07.294Z,13.80
2022-08-17T02:31:01.228Z,15.20
2022-08-17T02:33:22.411Z,11.65
2022-08-17T02:35:49.889Z,13.77
2022-08-17T02:38:17.403Z,13.18
2022-08-17T02:40:46.160Z,13.85
2022-08-17T02:43:14.517Z,14.93
2022-08-17T02:45:42.010Z,12.13
2022-08-17T02:48:09.453Z,15.25
2022-08-17T02:50:37.345Z,16.38
2022-08-17T02:53:05.410Z,14.27
2022-08-17T02:55:34.191Z,16.48
2022-08-17T02:58:03.699Z,14.90
2022-08-17T03:00:33.923Z,16.48
2022-08-17T03:03:02.398Z,18.30
2022-08-17T03:05:31.348Z,16.35
2022-08-17T03:07:58.899Z,14.32
2022-08-17T03:10:26.899Z,19.58
2022-08-17T03:12:54.578Z,16.13
2022-08-17T03:15:25.001Z,13.95
2022-08-17T03:17:52.903Z,12.82
2022-08-17T03:20:21.678Z,14.57
2022-08-17T03:22:53.306Z,13.93
2022-08-17T03:25:23.049Z,16.00
2022-08-17T03:27:51.474Z,13.75
2022-08-17T03:30:19.376Z,15.38
2022-08-17T03:32:51.365Z,16.70
2022-08-17T03:35:19.815Z,17.38
2022-08-17T03:37:47.672Z,17.42
2022-08-17T03:40:55.906Z,15.30
2022-08-17T03:43:15.535Z,17.00
2022-08-17T03:46:01.567Z,15.93
2022-08-17T03:48:47.793Z,14.57
2022-08-17T03:51:36.206Z,15.18
2022-08-17T03:54:21.131Z,14.90
2022-08-17T03:56:54.123Z,16.58
2022-08-17T03:59:23.193Z,16.63
2022-08-17T04:01:53.118Z,14.93
2022-08-17T04:04:27.579Z,14.27
2022-08-17T04:06:55.452Z,14.20
2022-08-17T04:09:22.962Z,17.30
2022-08-17T04:11:50.355Z,15.07
2022-08-17T04:14:17.778Z,15.18
2022-08-17T04:16:45.200Z,15.30
2022-08-17T04:19:12.841Z,13.05
2022-08-17T04:21:41.629Z,18.58
2022-08-17T04:24:09.207Z,15.63
2022-08-17T04:26:53.668Z,15.93
2022-08-17T04:29:22.123Z,16.40
2022-08-17T04:31:49.630Z,15.52
2022-08-17T04:34:19.800Z,20.02
2022-08-17T04:36:50.439Z,14.95
2022-08-17T04:39:18.111Z,17.30
2022-08-17T04:42:03.104Z,16.20
2022-08-17T04:44:37.629Z,15.75
2022-08-17T04:47:07.105Z,14.98
2022-08-17T04:49:38.083Z,15.70
2022-08-17T04:52:07.206Z,15.82
2022-08-17T04:54:37.992Z,14.70
2022-08-17T04:57:05.546Z,13.23
2022-08-17T04:59:32.986Z,14.95
2022-08-17T05:02:00.387Z,13.40
2022-08-17T05:04:33.879Z,16.75
2022-08-17T05:07:03.976Z,14.43
2022-08-17T05:09:32.973Z,14.82
2022-08-17T05:12:01.380Z,15.13
2022-08-17T05:14:32.847Z,14.32
2022-08-17T05:17:01.275Z,14.73
2022-08-17T05:19:29.455Z,14.10
2022-08-17T05:21:56.871Z,13.82
2022-08-17T05:24:40.708Z,19.02
2022-08-17T05:27:18.738Z,17.35
2022-08-17T05:29:46.651Z,14.52
2022-08-17T05:32:39.692Z,14.80
2022-08-17T05:35:02.530Z,15.98
2022-08-17T05:37:30.023Z,13.70
2022-08-17T05:39:57.611Z,15.43
2022-08-17T05:42:26.434Z,13.23
2022-08-17T05:44:53.844Z,15.02
2022-08-17T05:47:21.866Z,13.98
2022-08-17T05:49:49.347Z,18.77
2022-08-17T05:52:21.576Z,13.85
2022-08-17T05:54:57.598Z,16.80
2022-08-17T05:57:47.516Z,13.10
2022-08-17T06:00:21.722Z,16.98
2022-08-17T06:03:15.850Z,17.02
2022-08-17T06:05:51.732Z,16.83
2022-08-17T06:08:22.841Z,16.00
2022-08-17T06:10:56.082Z,19.00
2022-08-17T06:13:31.623Z,16.95
2022-08-17T06:16:03.002Z,12.25
2022-08-17T06:18:32.148Z,19.92
2022-08-17T06:21:00.950Z,12.48
2022-08-17T06:23:34.758Z,11.88
2022-08-17T06:26:04.950Z,13.38
2022-08-17T06:28:37.020Z,11.23
2022-08-17T06:31:08.912Z,10.77
2022-08-17T06:33:37.667Z,11.30
2022-08-17T06:36:11.385Z,14.68
2022-08-17T06:38:49.899Z,13.15
2022-08-17T06:41:20.627Z,10.60
2022-08-17T06:43:54.365Z,14.05
2022-08-17T06:46:25.262Z,12.82
2022-08-17T06:49:07.519Z,13.20
2022-08-17T06:51:37.832Z,11.15
2022-08-17T06:54:07.591Z,9.07
2022-08-17T06:56:52.791Z,15.30
2022-08-17T06:59:26.232Z,13.85
2022-08-17T07:02:05.279Z,11.55
2022-08-17T07:04:34.311Z,11.82
2022-08-17T07:07:22.901Z,13.82
2022-08-17T07:09:51.571Z,12.38
2022-08-17T07:12:20.125Z,13.90
2022-08-17T07:14:52.430Z,10.90
2022-08-17T07:17:21.125Z,13.68
2022-08-17T07:20:08.298Z,13.43
2022-08-17T07:22:50.342Z,11.85
2022-08-17T07:25:22.898Z,12.52
2022-08-17T07:27:52.690Z,10.38
2022-08-17T07:30:23.499Z,11.63
2022-08-17T07:32:53.290Z,10.68
2022-08-17T07:35:23.020Z,11.13
2022-08-17T07:37:53.128Z,9.88
2022-08-17T07:40:27.004Z,11.10
2022-08-17T07:43:22.275Z,8.63
2022-08-17T07:46:14.591Z,11.95
2022-08-17T07:48:43.819Z,8.43
2022-08-17T07:51:22.231Z,10.48
2022-08-17T07:53:49.801Z,9.43
2022-08-17T07:56:34.432Z,12.07
2022-08-17T07:59:07.080Z,9.43
2022-08-17T08:01:41.747Z,6.45
2022-08-17T08:04:43.435Z,8.38
2022-08-17T08:07:13.175Z,7.03
2022-08-17T08:09:41.764Z,9.35
2022-08-17T08:12:33.812Z,8.93
2022-08-17T08:15:03.256Z,11.00
2022-08-17T08:17:35.726Z,6.63
2022-08-17T08:20:37.758Z,7.28
2022-08-17T08:23:02.395Z,6.55
2022-08-17T08:25:38.092Z,7.38
2022-08-17T08:28:13.930Z,8.85
2022-08-17T08:30:44.354Z,8.57
2022-08-17T08:33:18.213Z,6.85
2022-08-17T08:35:50.093Z,6.68
2022-08-17T08:38:23.534Z,5.35
2022-08-17T08:41:08.520Z,4.80
2022-08-17T08:43:38.868Z,7.43
2022-08-17T08:46:13.051Z,5.45
2022-08-17T08:48:56.855Z,5.70
2022-08-17T08:51:32.170Z,6.45
2022-08-17T08:54:03.229Z,7.03
2022-08-17T08:56:35.214Z,5.88
2022-08-17T08:59:05.392Z,6.30
2022-08-17T09:01:36.668Z,6.90
2022-08-17T09:04:23.719Z,5.68
2022-08-17T09:06:57.846Z,5.47
2022-08-17T09:09:29.254Z,6.75
2022-08-17T09:12:03.947Z,5.85
2022-08-17T09:14:46.715Z,4.93
2022-08-17T09:17:16.561Z,5.22
2022-08-17T09:19:49.236Z,6.28
2022-08-17T09:22:22.782Z,3.97
2022-08-17T09:24:54.678Z,4.03
2022-08-17T09:27:25.458Z,3.80
2022-08-17T09:29:57.830Z,4.63
2022-08-17T09:32:29.175Z,6.43
2022-08-17T09:35:01.364Z,5.40
2022-08-17T09:37:30.448Z,4.07
2022-08-17T09:40:06.675Z,5.20
2022-08-17T09:45:07.689Z,6.38
2022-08-17T09:47:45.361Z,5.07
2022-08-17T09:50:20.120Z,3.83
2022-08-17T09:53:07.898Z,6.07
2022-08-17T09:55:43.764Z,6.68
2022-08-17T09:58:15.279Z,5.32
2022-08-17T10:00:49.048Z,4.68
2022-08-17T10:03:28.176Z,5.13
2022-08-17T10:06:02.654Z,6.18
2022-08-17T10:08:37.648Z,5.78
2022-08-17T10:11:12.562Z,6.35
2022-08-17T10:13:53.473Z,4.68
2022-08-17T10:16:23.903Z,3.85
2022-08-17T10:18:57.222Z,6.22
2022-08-17T10:21:44.145Z,4.80
2022-08-17T10:24:32.930Z,4.22
2022-08-17T10:27:02.276Z,5.43
2022-08-17T10:29:40.821Z,8.95
2022-08-17T10:32:21.360Z,9.00
2022-08-17T10:34:53.718Z,6.53
2022-08-17T10:37:36.062Z,5.30
2022-08-17T10:40:11.483Z,5.20
2022-08-17T10:42:45.822Z,5.47
2022-08-17T10:45:18.012Z,4.88
2022-08-17T10:48:04.752Z,5.65
2022-08-17T10:50:59.773Z,4.40
2022-08-17T10:53:45.943Z,7.65
2022-08-17T10:56:23.176Z,6.00
2022-08-17T10:58:53.920Z,6.40
2022-08-17T11:01:23.641Z,6.07
2022-08-17T11:03:55.020Z,3.17
2022-08-17T11:06:26.407Z,8.32
2022-08-17T11:09:08.736Z,3.40
2022-08-17T11:11:54.166Z,4.43
2022-08-17T11:14:28.106Z,4.40
2022-08-17T11:17:11.264Z,4.72
2022-08-17T11:20:04.861Z,4.90
2022-08-17T11:22:44.322Z,7.25
2022-08-17T11:25:14.540Z,5.95
2022-08-17T11:27:43.014Z,4.75
2022-08-17T11:30:14.739Z,5.80
2022-08-17T11:32:47.539Z,3.55
2022-08-17T11:35:32.378Z,5.15
2022-08-17T11:38:10.846Z,3.22
2022-08-17T11:40:53.095Z,5.45
2022-08-17T11:43:47.371Z,3.20
2022-08-17T11:46:22.178Z,3.05
2022-08-17T11:49:14.187Z,4.40
2022-08-17T11:51:55.740Z,4.85
2022-08-17T11:54:39.831Z,5.50
2022-08-17T11:57:22.248Z,4.75
2022-08-17T12:02:35.468Z,4.75
2022-08-17T12:05:25.197Z,4.47
2022-08-17T12:07:56.186Z,5.13
2022-08-17T12:10:31.423Z,4.18
2022-08-17T12:12:59.939Z,4.45
2022-08-17T12:15:31.327Z,5.45
2022-08-17T12:17:59.181Z,4.53
2022-08-17T12:20:30.324Z,3.60
2022-08-17T12:23:04.367Z,4.97
2022-08-17T12:25:35.538Z,3.13
2022-08-17T12:28:05.260Z,4.40
2022-08-17T12:30:34.402Z,4.50
2022-08-17T12:33:02.472Z,5.70
2022-08-17T12:35:35.072Z,5.07
2022-08-17T12:38:03.432Z,4.45
2022-08-17T12:40:32.408Z,3.90
2022-08-17T12:43:00.717Z,5.78
2022-08-17T12:45:30.084Z,6.15
2022-08-17T12:48:04.133Z,5.88
2022-08-17T12:50:33.094Z,5.43
2022-08-17T12:53:02.534Z,5.55
2022-08-17T12:55:32.510Z,4.55
2022-08-17T12:58:02.143Z,6.45
2022-08-17T13:00:31.246Z,4.65
2022-08-17T13:03:00.225Z,3.47
2022-08-17T13:05:28.599Z,3.25
2022-08-17T13:07:58.500Z,4.30
2022-08-17T13:10:32.118Z,3.90
2022-08-17T13:13:04.716Z,4.22
2022-08-17T13:15:35.457Z,6.60
2022-08-17T13:18:07.506Z,4.00
2022-08-17T13:20:35.095Z,6.05
2022-08-17T13:23:11.473Z,4.40
2022-08-17T13:25:40.020Z,4.47
2022-08-17T13:28:07.450Z,3.92
2022-08-17T13:30:34.969Z,3.60
2022-08-17T13:33:04.809Z,5.45
2022-08-17T13:35:43.647Z,4.85
2022-08-17T13:38:16.844Z,6.90
2022-08-17T13:40:51.729Z,4.97
2022-08-17T13:43:37.663Z,4.00
2022-08-17T13:46:09.624Z,4.00
2022-08-17T13:48:37.254Z,4.80
2022-08-17T13:51:16.236Z,6.43
2022-08-17T13:53:59.215Z,4.40
2022-08-17T13:56:33.355Z,6.95
2022-08-17T13:59:07.111Z,4.55
2022-08-17T14:01:36.075Z,4.20
2022-08-17T14:04:06.633Z,4.70
2022-08-17T14:06:52.929Z,5.18
2022-08-17T14:09:23.994Z,4.90
2022-08-17T14:11:51.935Z,5.07
2022-08-17T14:14:23.106Z,4.93
2022-08-17T14:16:50.670Z,4.32
2022-08-17T14:19:18.139Z,4.72
2022-08-17T14:21:46.821Z,3.75
2022-08-17T14:24:20.572Z,4.35
2022-08-17T14:26:49.740Z,5.55
2022-08-17T14:31:53.286Z,5.15
2022-08-17T14:34:22.083Z,4.95
2022-08-17T14:36:49.578Z,4.07
2022-08-17T14:39:17.664Z,4.55
2022-08-17T14:41:45.577Z,3.28
2022-08-17T14:44:14.432Z,4.90
2022-08-17T14:46:42.999Z,4.80
2022-08-17T14:49:11.178Z,4.97
2022-08-17T14:51:44.421Z,4.15
2022-08-17T14:54:25.654Z,7.22
2022-08-17T14:57:22.840Z,5.43
2022-08-17T14:59:51.761Z,4.60
2022-08-17T15:02:22.818Z,4.97
2022-08-17T15:04:59.768Z,4.18
2022-08-17T15:07:30.958Z,5.82
2022-08-17T15:09:58.711Z,4.45
2022-08-17T15:12:32.337Z,4.13
2022-08-17T15:15:02.248Z,3.95
2022-08-17T15:17:44.180Z,6.35
2022-08-17T15:20:15.152Z,4.30
2022-08-17T15:22:43.586Z,6.78
2022-08-17T15:25:11.718Z,4.75
2022-08-17T15:27:40.189Z,4.38
2022-08-17T15:30:10.006Z,4.07
2022-08-17T15:32:40.503Z,7.25
2022-08-17T15:35:11.683Z,4.75
2022-08-17T15:37:40.095Z,5.35
2022-08-17T15:40:08.430Z,5.35
2022-08-17T15:42:36.245Z,6.28
2022-08-17T15:45:06.994Z,5.25
2022-08-17T15:47:36.862Z,3.80
2022-08-17T15:50:06.116Z,3.90
2022-08-17T15:52:37.927Z,4.90
2022-08-17T15:55:06.178Z,5.05
2022-08-17T15:57:33.776Z,3.63
2022-08-17T16:00:01.298Z,4.40
2022-08-17T16:03:45.668Z,4.93
2022-08-17T16:05:21.825Z,7.63
2022-08-17T16:07:52.070Z,6.22
2022-08-17T16:10:19.903Z,7.25
2022-08-17T16:12:47.890Z,5.30
2022-08-17T16:15:16.174Z,3.65
2022-08-17T16:17:43.589Z,5.13
2022-08-17T16:20:20.344Z,11.85
2022-08-17T16:22:50.912Z,7.22
2022-08-17T16:25:20.286Z,9.82
2022-08-17T16:27:49.202Z,7.65
2022-08-17T16:30:17.905Z,6.65
2022-08-17T16:32:46.561Z,4.57
2022-08-17T16:35:16.127Z,5.82
2022-08-17T16:37:45.385Z,5.38
2022-08-17T16:40:15.139Z,7.53
2022-08-17T16:42:43.871Z,6.22
2022-08-17T16:45:13.449Z,6.85
2022-08-17T16:47:41.741Z,4.88
2022-08-17T16:50:11.687Z,4.75
2022-08-17T16:52:41.007Z,6.13
2022-08-17T16:55:09.348Z,7.00
2022-08-17T16:57:47.339Z,7.47
2022-08-17T17:00:19.479Z,5.63
2022-08-17T17:02:49.562Z,6.18
2022-08-17T17:05:24.349Z,6.95
2022-08-17T17:07:54.807Z,5.47
2022-08-17T17:10:23.934Z,4.43
2022-08-17T17:13:01.586Z,6.63
2022-08-17T17:15:39.543Z,7.60
2022-08-17T17:18:09.167Z,7.20
2022-08-17T17:20:41.363Z,6.35
2022-08-17T17:23:11.321Z,7.95
2022-08-17T17:25:48.807Z,5.32
2022-08-17T17:28:20.081Z,5.88
2022-08-17T17:30:50.760Z,14.75
2022-08-17T17:33:22.468Z,7.30
2022-08-17T17:35:51.237Z,9.07
2022-08-17T17:38:22.043Z,7.95
2022-08-17T17:40:50.699Z,7.43
2022-08-17T17:43:38.396Z,7.20
2022-08-17T17:46:27.154Z,7.50
2022-08-17T17:48:56.669Z,10.65
2022-08-17T17:52:08.729Z,6.22
2022-08-17T17:54:21.559Z,9.75
2022-08-17T17:56:54.547Z,5.82
2022-08-17T17:59:28.550Z,7.25
2022-08-17T18:01:59.191Z,10.00
2022-08-17T18:04:29.140Z,8.35
2022-08-17T18:07:03.296Z,8.18
2022-08-17T18:09:37.822Z,8.00
2022-08-17T18:12:12.001Z,11.45
2022-08-17T18:14:50.909Z,7.45
2022-08-17T18:17:20.302Z,7.13
2022-08-17T18:19:48.301Z,7.07
2022-08-17T18:22:17.871Z,8.35
2022-08-17T18:24:47.106Z,6.05
2022-08-17T18:27:23.155Z,7.57
2022-08-17T18:29:52.815Z,10.10
2022-08-17T18:32:24.039Z,9.15
2022-08-17T18:34:53.396Z,12.57
2022-08-17T18:37:38.652Z,9.27
2022-08-17T18:40:24.185Z,9.43
2022-08-17T18:42:57.745Z,8.60
2022-08-17T18:45:34.348Z,9.18
2022-08-17T18:48:01.841Z,9.27
2022-08-17T18:50:34.929Z,10.80
2022-08-17T18:53:19.146Z,10.05
2022-08-17T18:55:46.642Z,22.70
2022-08-17T18:58:19.700Z,9.07
2022-08-17T19:00:49.731Z,7.03
2022-08-17T19:03:23.937Z,11.10
2022-08-17T19:05:52.955Z,10.13
2022-08-17T19:08:28.263Z,9.10
2022-08-17T19:10:57.836Z,10.90
2022-08-17T19:13:26.466Z,8.00
2022-08-17T19:16:13.740Z,7.43
2022-08-17T19:18:45.551Z,10.30
2022-08-17T19:21:15.180Z,11.23
2022-08-17T19:23:53.395Z,11.63
2022-08-17T19:26:50.858Z,10.13
2022-08-17T19:29:15.625Z,13.68
2022-08-17T19:31:45.353Z,11.32
2022-08-17T19:34:14.144Z,9.68
2022-08-17T19:36:44.037Z,9.50
2022-08-17T19:39:14.166Z,9.32
2022-08-17T19:41:44.400Z,8.98
2022-08-17T19:44:19.456Z,9.25
2022-08-17T19:46:56.311Z,7.43
2022-08-17T19:49:33.469Z,7.45
2022-08-17T19:52:16.921Z,12.10
2022-08-17T19:54:47.906Z,11.73
2022-08-17T19:57:19.262Z,9.18
2022-08-17T19:59:50.666Z,24.77
2022-08-17T20:02:26.403Z,20.23
2022-08-17T20:04:55.848Z,9.65
2022-08-17T20:07:25.395Z,11.35
2022-08-17T20:09:54.764Z,9.45
2022-08-17T20:12:25.199Z,7.80
2022-08-17T20:14:56.052Z,13.93
2022-08-17T20:17:25.963Z,9.45
2022-08-17T20:19:59.291Z,8.13
2022-08-17T20:22:29.774Z,8.63
2022-08-17T20:25:03.135Z,7.53
2022-08-17T20:27:32.182Z,8.55
2022-08-17T20:30:01.788Z,7.88
2022-08-17T20:32:32.322Z,6.88
2022-08-17T20:35:03.818Z,11.00
2022-08-17T20:37:32.385Z,10.30
2022-08-17T20:40:14.808Z,8.55
2022-08-17T20:42:42.326Z,7.00
2022-08-17T20:45:26.041Z,9.00
2022-08-17T20:48:21.577Z,10.65
2022-08-17T20:50:45.879Z,6.90
2022-08-17T20:53:33.320Z,6.95
2022-08-17T20:56:00.744Z,9.52
2022-08-17T20:58:38.278Z,8.50
2022-08-17T21:01:20.147Z,9.98
2022-08-17T21:03:52.149Z,7.35
2022-08-17T21:06:22.027Z,6.47
2022-08-17T21:08:54.103Z,9.30
2022-08-17T21:12:02.295Z,8.05
2022-08-17T21:14:36.521Z,7.63
2022-08-17T21:17:07.708Z,10.80
2022-08-17T21:20:00.495Z,10.40
2022-08-17T21:22:38.730Z,13.32
2022-08-17T21:25:11.831Z,12.27
2022-08-17T21:27:45.679Z,18.15
2022-08-17T21:30:21.529Z,8.70
2022-08-17T21:33:09.021Z,11.15
2022-08-17T21:35:53.136Z,9.40
2022-08-17T21:38:35.894Z,6.97
2022-08-17T21:41:03.282Z,11.00
2022-08-17T21:43:32.781Z,10.23
2022-08-17T21:46:02.193Z,11.10
2022-08-17T21:48:31.205Z,7.93
2022-08-17T21:51:03.592Z,10.10
2022-08-17T21:53:35.216Z,10.43
2022-08-17T21:56:02.644Z,13.43
2022-08-17T21:58:31.951Z,11.75
2022-08-17T22:01:20.853Z,7.97
2022-08-17T22:03:55.451Z,8.55
2022-08-17T22:06:25.446Z,9.23
2022-08-17T22:08:59.836Z,9.63
2022-08-17T22:11:27.222Z,9.90
2022-08-17T22:14:00.723Z,7.30
2022-08-17T22:16:33.836Z,7.55
2022-08-17T22:19:01.388Z,11.13
2022-08-17T22:21:30.183Z,7.70
2022-08-17T22:24:04.819Z,7.50
2022-08-17T22:26:50.886Z,7.50
2022-08-17T22:29:33.184Z,10.93
2022-08-17T22:32:00.690Z,9.00
2022-08-17T22:34:28.104Z,8.02
2022-08-17T22:37:10.399Z,8.32
2022-08-17T22:39:42.232Z,9.18
2022-08-17T22:42:14.614Z,9.80
2022-08-17T22:44:47.933Z,10.68
2022-08-17T22:47:27.787Z,10.43
2022-08-17T22:49:57.605Z,11.98
2022-08-17T22:52:32.465Z,7.95
2022-08-17T22:55:24.927Z,8.13
2022-08-17T22:58:10.197Z,8.48
2022-08-17T23:00:39.803Z,8.82
2022-08-17T23:03:10.351Z,6.93
2022-08-17T23:05:38.027Z,8.68
2022-08-17T23:08:05.636Z,8.70
2022-08-17T23:10:35.946Z,8.75
2022-08-17T23:13:03.494Z,9.15
2022-08-17T23:15:33.038Z,8.68
2022-08-17T23:18:04.771Z,9.80
2022-08-17T23:20:32.691Z,9.40
2022-08-17T23:23:00.600Z,9.27
2022-08-17T23:25:29.164Z,11.35
2022-08-17T23:27:59.090Z,12.15
2022-08-17T23:30:28.412Z,9.00
2022-08-17T23:32:56.823Z,9.38
2022-08-17T23:35:40.595Z,8.15
2022-08-17T23:38:08.907Z,7.93
2022-08-17T23:40:36.341Z,12.38
2022-08-17T23:43:11.476Z,8.50
2022-08-17T23:45:53.120Z,8.00
2022-08-17T23:48:34.973Z,8.35
2022-08-17T23:51:05.721Z,10.85
2022-08-17T23:53:34.730Z,13.10
2022-08-17T23:56:09.381Z,9.60
2022-08-17T23:58:39.927Z,11.88
